createdAt,value
2023-05-06T00:00:31.183Z,79.19
2023-05-06T00:10:32.066Z,78.05
2023-05-06T00:20:33.072Z,78.52
2023-05-06T00:30:34.036Z,79.95
2023-05-06T00:40:34.953Z,82.43
2023-05-06T00:50:35.904Z,83.60
2023-05-06T01:00:36.839Z,82.08
2023-05-06T01:10:37.732Z,83.29
2023-05-06T01:20:38.632Z,83.07
2023-05-06T01:40:40.455Z,82.63
2023-05-06T01:50:41.349Z,82.83
2023-05-06T02:00:42.235Z,84.68
2023-05-06T02:20:44.289Z,84.98
2023-05-06T02:30:44.946Z,87.26
2023-05-06T02:40:45.822Z,88.96
2023-05-06T02:50:46.940Z,88.98
2023-05-06T03:00:47.602Z,88.17
2023-05-06T03:20:49.323Z,89.24
2023-05-06T03:30:50.476Z,89.42
2023-05-06T03:40:50.858Z,88.29
2023-05-06T03:50:51.665Z,89.77
2023-05-06T04:00:52.602Z,89.03
2023-05-06T04:10:53.496Z,88.51
2023-05-06T04:20:54.394Z,92.42
2023-05-06T04:30:55.209Z,92.02
2023-05-06T04:40:55.971Z,91.26
2023-05-06T04:50:56.865Z,88.99
2023-05-06T05:00:57.848Z,87.63
2023-05-06T05:10:58.790Z,86.18
2023-05-06T05:20:59.674Z,85.07
2023-05-06T05:31:00.923Z,83.67
2023-05-06T05:51:02.765Z,78.67
2023-05-06T06:01:04.507Z,73.24
2023-05-06T06:11:05.430Z,67.22
2023-05-06T06:31:08.408Z,64.27
2023-05-06T06:41:09.884Z,63.86
2023-05-06T06:51:11.462Z,63.34
2023-05-06T07:01:13.184Z,56.61
2023-05-06T07:11:15.092Z,56.66
2023-05-06T07:21:18.021Z,54.46
2023-05-06T07:31:19.059Z,55.72
2023-05-06T07:41:21.102Z,54.38
2023-05-06T07:51:22.987Z,51.67
2023-05-06T08:01:25.367Z,51.90
2023-05-06T08:11:27.364Z,52.24
2023-05-06T08:21:29.556Z,47.89
2023-05-06T08:31:31.603Z,48.75
2023-05-06T08:41:33.567Z,47.75
2023-05-06T08:51:35.649Z,46.17
2023-05-06T09:01:37.809Z,45.67
2023-05-06T09:11:39.517Z,48.06
2023-05-06T09:21:41.428Z,45.14
2023-05-06T09:31:43.327Z,45.04
2023-05-06T09:41:45.293Z,46.26
2023-05-06T09:51:47.479Z,43.65
2023-05-06T10:01:49.081Z,44.76
2023-05-06T10:11:50.996Z,43.55
2023-05-06T10:21:54.309Z,42.12
2023-05-06T10:31:54.935Z,42.31
2023-05-06T10:41:56.744Z,40.56
2023-05-06T10:51:58.698Z,40.88
2023-05-06T11:02:00.803Z,41.11
2023-05-06T11:12:02.680Z,41.19
2023-05-06T11:22:04.651Z,41.90
2023-05-06T11:32:06.697Z,41.16
2023-05-06T11:42:08.525Z,40.85
2023-05-06T11:52:10.480Z,40.43
2023-05-06T12:02:12.435Z,40.27
2023-05-06T12:12:14.299Z,41.11
2023-05-06T12:22:16.522Z,42.13
2023-05-06T12:32:18.124Z,42.83
2023-05-06T12:42:20.138Z,43.47
2023-05-06T12:52:21.965Z,43.84
2023-05-06T13:02:23.779Z,44.85
2023-05-06T13:12:25.574Z,45.77
2023-05-06T13:22:27.374Z,46.42
2023-05-06T13:32:29.242Z,50.46
2023-05-06T13:42:31.018Z,54.33
2023-05-06T13:52:32.448Z,56.23
2023-05-06T14:02:34.204Z,56.65
2023-05-06T14:12:35.869Z,58.06
2023-05-06T14:22:37.483Z,59.07
2023-05-06T14:32:39.124Z,61.79
2023-05-06T14:42:40.631Z,66.53
2023-05-06T14:52:42.499Z,72.26
2023-05-06T15:12:45.349Z,76.41
2023-05-06T15:22:46.816Z,77.29
2023-05-06T15:32:48.582Z,76.07
2023-05-06T15:42:49.917Z,78.18
2023-05-06T15:52:51.733Z,77.08
2023-05-06T16:02:53.011Z,73.76
2023-05-06T16:12:54.428Z,72.38
2023-05-06T16:22:56.189Z,72.32
2023-05-06T16:32:57.420Z,72.16
2023-05-06T16:42:58.984Z,72.95
2023-05-06T16:53:00.574Z,74.57
2023-05-06T17:03:02.282Z,75.22
2023-05-06T17:13:03.783Z,75.97
2023-05-06T17:23:05.095Z,77.64
2023-05-06T17:43:08.105Z,81.52
2023-05-06T17:53:09.786Z,80.75
2023-05-06T18:03:11.239Z,82.20
2023-05-06T18:13:12.780Z,82.84
2023-05-06T18:23:14.204Z,84.10
2023-05-06T18:33:15.665Z,85.26
2023-05-06T18:43:17.089Z,86.06
2023-05-06T18:53:19.918Z,85.72
2023-05-06T19:03:19.959Z,86.81
2023-05-06T19:13:21.510Z,87.42
2023-05-06T19:23:22.814Z,88.44
2023-05-06T19:33:24.217Z,89.53
2023-05-06T19:43:25.612Z,89.12
2023-05-06T19:53:27.028Z,90.88
2023-05-06T20:03:28.534Z,91.28
2023-05-06T20:13:29.909Z,91.85
2023-05-06T20:23:31.434Z,92.15
2023-05-06T20:33:32.497Z,92.45
2023-05-06T20:43:33.797Z,91.43
2023-05-06T20:53:35.242Z,92.01
2023-05-06T21:03:36.761Z,90.73
2023-05-06T21:13:37.879Z,92.93
2023-05-06T21:23:39.390Z,94.12
2023-05-06T21:33:40.452Z,93.88
2023-05-06T21:43:41.784Z,94.24
2023-05-06T21:53:43.299Z,95.62
2023-05-06T22:03:44.437Z,96.43
2023-05-06T22:23:47.192Z,96.39
2023-05-06T22:33:48.177Z,95.70
2023-05-06T22:43:49.427Z,95.90
2023-05-06T22:53:50.809Z,95.20
2023-05-06T23:03:51.969Z,97.05
2023-05-06T23:13:53.508Z,97.25
2023-05-06T23:23:54.721Z,98.45
2023-05-06T23:33:55.919Z,98.07
2023-05-06T23:43:57.200Z,96.97
2023-05-06T23:53:58.179Z,97.05
